KGLD

Renner Field /Goodland Municipal/ Airport

Goodland, Kansas, USA
METAR KGLD 161353Z AUTO 31006KT 10SM CLR M02/M12 A2973 RMK AO2 SLP078 T10221117
Observed Flight Rules
Dec-16 @ 13:53 UTC (an hour ago) Visual Flight Rules
Wind Visibility Clouds
310° at 6 knots 10 miles
  • Clear skies
Temperatures Readings
Current -2°C / 28°F
Dewpoint -12°C / 10°F
Humidity 47%
Altimeter 29.73" Hg
Pressure 1007.8 hPa
Elevation 1113
METAR KGLD 161353Z AUTO 31006KT 10SM CLR M02/M12 A2973 RMK AO2 SLP078 T10221117
Observed Flight Rules
Dec-16 @ 13:53 UTC
(an hour ago)
VFR
Wind Visibility
310° at 6 knots 10 miles
Clouds
  • Clear skies
Temperature Dewpoint
-2°C / 28°F -12°C / 10°F
Humidity Altimeter Pressure
47% 29.73" Hg 1007.8 hPa